createdAt,value
2019-05-02T00:01:25.109Z,5.75
2019-05-02T00:03:54.059Z,5.70
2019-05-02T00:06:23.678Z,5.45
2019-05-02T00:08:52.859Z,5.50
2019-05-02T00:11:21.967Z,5.78
2019-05-02T00:13:51.385Z,5.90
2019-05-02T00:16:20.560Z,6.75
2019-05-02T00:18:49.439Z,6.40
2019-05-02T00:21:18.457Z,7.15
2019-05-02T00:23:47.848Z,6.30
2019-05-02T00:26:16.840Z,6.28
2019-05-02T00:28:49.878Z,6.33
2019-05-02T00:31:23.037Z,6.42
2019-05-02T00:33:52.126Z,6.33
2019-05-02T00:36:25.526Z,6.92
2019-05-02T00:38:54.810Z,7.00
2019-05-02T00:41:23.915Z,6.67
2019-05-02T00:43:52.894Z,6.78
2019-05-02T00:46:22.089Z,7.05
2019-05-02T00:48:54.195Z,7.17
2019-05-02T00:51:26.686Z,8.08
2019-05-02T00:53:56.450Z,7.33
2019-05-02T00:56:25.564Z,6.25
2019-05-02T00:58:54.552Z,6.95
2019-05-02T01:01:29.562Z,7.78
2019-05-02T01:04:05.017Z,7.20
2019-05-02T01:06:34.028Z,7.25
2019-05-02T01:09:05.877Z,7.37
2019-05-02T01:11:55.140Z,7.00
2019-05-02T01:14:27.104Z,6.30
2019-05-02T01:16:56.203Z,6.33
2019-05-02T01:19:25.697Z,7.03
2019-05-02T01:21:57.455Z,6.08
2019-05-02T01:24:29.016Z,6.47
2019-05-02T01:27:06.507Z,6.97
2019-05-02T01:29:39.493Z,7.17
2019-05-02T01:32:29.950Z,6.90
2019-05-02T01:35:06.306Z,6.87
2019-05-02T01:37:42.505Z,7.40
2019-05-02T01:40:13.045Z,6.53
2019-05-02T01:42:44.544Z,6.75
2019-05-02T01:45:12.965Z,6.70
2019-05-02T01:47:43.689Z,6.92
2019-05-02T01:53:17.753Z,7.00
2019-05-02T01:55:46.021Z,7.67
2019-05-02T01:58:20.283Z,7.65
2019-05-02T02:00:45.988Z,6.85
2019-05-02T02:03:15.350Z,6.62
2019-05-02T02:05:44.526Z,5.40
2019-05-02T02:08:13.432Z,6.50
2019-05-02T02:10:43.894Z,5.45
2019-05-02T02:13:13.886Z,6.92
2019-05-02T02:15:42.971Z,7.42
2019-05-02T02:18:13.501Z,6.85
2019-05-02T02:21:00.626Z,7.58
2019-05-02T02:23:31.268Z,6.87
2019-05-02T02:26:02.303Z,6.78
2019-05-02T02:28:34.758Z,7.25
2019-05-02T02:31:04.845Z,7.85
2019-05-02T02:33:34.590Z,6.87
2019-05-02T02:36:03.769Z,7.33
2019-05-02T02:38:35.462Z,7.47
2019-05-02T02:41:06.379Z,6.87
2019-05-02T02:43:36.300Z,8.15
2019-05-02T02:46:13.280Z,7.37
2019-05-02T02:48:42.803Z,7.35
2019-05-02T02:51:22.234Z,6.95
2019-05-02T02:53:42.512Z,6.67
2019-05-02T02:56:11.724Z,6.67
2019-05-02T02:58:45.853Z,7.60
2019-05-02T03:01:11.440Z,6.62
2019-05-02T03:03:40.636Z,7.47
2019-05-02T03:06:09.521Z,7.28
2019-05-02T03:08:45.756Z,6.75
2019-05-02T03:11:10.834Z,7.37
2019-05-02T03:13:52.604Z,8.40
2019-05-02T03:16:25.461Z,7.60
2019-05-02T03:18:54.474Z,9.23
2019-05-02T03:21:23.655Z,9.70
2019-05-02T03:24:01.691Z,10.05
2019-05-02T03:26:24.111Z,11.12
2019-05-02T03:28:58.698Z,11.18
2019-05-02T03:31:29.523Z,10.68
2019-05-02T03:34:00.869Z,10.98
2019-05-02T03:36:37.589Z,10.32
2019-05-02T03:39:15.332Z,9.45
2019-05-02T03:41:38.030Z,9.95
2019-05-02T03:44:11.347Z,9.13
2019-05-02T03:46:37.642Z,8.33
2019-05-02T03:49:09.402Z,8.30
2019-05-02T03:51:37.690Z,7.30
2019-05-02T03:54:09.903Z,7.92
2019-05-02T03:56:38.422Z,7.15
2019-05-02T03:59:11.489Z,7.70
2019-05-02T04:01:41.192Z,7.67
2019-05-02T04:04:14.076Z,6.90
2019-05-02T04:06:41.994Z,8.23
2019-05-02T04:09:13.944Z,8.88
2019-05-02T04:11:43.350Z,8.25
2019-05-02T04:14:17.543Z,7.22
2019-05-02T04:16:48.598Z,7.15
2019-05-02T04:19:14.212Z,7.08
2019-05-02T04:21:43.873Z,7.03
2019-05-02T04:24:32.371Z,7.25
2019-05-02T04:27:01.479Z,7.05
2019-05-02T04:29:32.830Z,7.12
2019-05-02T04:32:04.512Z,6.92
2019-05-02T04:34:31.933Z,7.95
2019-05-02T04:37:03.655Z,7.35
2019-05-02T04:39:31.459Z,8.65
2019-05-02T04:42:05.511Z,8.23
2019-05-02T04:44:40.847Z,8.75
2019-05-02T04:47:11.125Z,8.55
2019-05-02T04:49:35.798Z,8.60
2019-05-02T04:52:10.454Z,7.87
2019-05-02T04:54:33.402Z,7.70
2019-05-02T04:57:02.809Z,7.08
2019-05-02T04:59:33.244Z,7.47
2019-05-02T05:02:02.543Z,8.45
2019-05-02T05:04:33.141Z,9.95
2019-05-02T05:07:02.048Z,11.78
2019-05-02T05:09:31.251Z,11.10
2019-05-02T05:12:02.594Z,10.82
2019-05-02T05:14:38.192Z,10.43
2019-05-02T05:17:01.413Z,11.00
2019-05-02T05:19:32.774Z,10.63
2019-05-02T05:22:04.652Z,10.18
2019-05-02T05:24:51.622Z,9.40
2019-05-02T05:27:22.758Z,10.08
2019-05-02T05:29:53.762Z,10.55
2019-05-02T05:32:21.998Z,9.33
2019-05-02T05:34:51.087Z,9.25
2019-05-02T05:37:20.088Z,9.23
2019-05-02T05:39:52.594Z,8.73
2019-05-02T05:42:23.157Z,9.80
2019-05-02T05:44:50.337Z,10.40
2019-05-02T05:47:21.293Z,9.90
2019-05-02T05:49:55.447Z,10.25
2019-05-02T05:52:20.477Z,11.57
2019-05-02T05:54:49.696Z,11.50
2019-05-02T05:57:21.087Z,9.33
2019-05-02T05:59:49.312Z,11.12
2019-05-02T06:02:20.139Z,8.00
2019-05-02T06:04:50.257Z,8.18
2019-05-02T06:07:20.191Z,10.60
2019-05-02T06:09:49.682Z,9.18
2019-05-02T06:12:18.561Z,12.75
2019-05-02T06:14:47.572Z,11.20
2019-05-02T06:17:16.562Z,10.70
2019-05-02T06:19:48.418Z,12.50
2019-05-02T06:22:24.462Z,11.75
2019-05-02T06:24:50.906Z,11.10
2019-05-02T06:27:20.788Z,13.13
2019-05-02T06:29:51.071Z,10.28
2019-05-02T06:32:20.714Z,12.65
2019-05-02T06:34:49.857Z,12.65
2019-05-02T06:37:18.948Z,10.00
2019-05-02T06:39:48.156Z,11.05
2019-05-02T06:42:17.255Z,11.97
2019-05-02T06:44:46.236Z,11.08
2019-05-02T06:47:15.435Z,11.40
2019-05-02T06:49:44.531Z,11.75
2019-05-02T06:52:13.610Z,11.97
2019-05-02T06:54:42.912Z,12.93
2019-05-02T06:57:11.897Z,8.70
2019-05-02T06:59:40.799Z,11.00
2019-05-02T07:02:10.128Z,14.25
2019-05-02T07:04:38.994Z,16.10
2019-05-02T07:07:08.012Z,17.75
2019-05-02T07:09:40.938Z,19.98
2019-05-02T07:12:09.939Z,17.00
2019-05-02T07:14:38.360Z,19.15
2019-05-02T07:17:20.566Z,14.05
2019-05-02T07:19:51.187Z,14.83
2019-05-02T07:22:20.593Z,14.83
2019-05-02T07:24:49.687Z,12.40
2019-05-02T07:27:18.877Z,15.32
2019-05-02T07:29:52.202Z,16.45
2019-05-02T07:32:19.157Z,15.13
2019-05-02T07:34:49.508Z,11.88
2019-05-02T07:37:18.645Z,11.97
2019-05-02T07:39:47.742Z,11.97
2019-05-02T07:42:16.518Z,14.20
2019-05-02T07:44:45.622Z,16.48
2019-05-02T07:47:14.921Z,18.37
2019-05-02T07:49:43.802Z,15.40
2019-05-02T07:52:12.801Z,13.68
2019-05-02T07:54:42.110Z,17.82
2019-05-02T07:57:11.201Z,16.60
2019-05-02T07:59:40.284Z,14.93
2019-05-02T08:02:09.803Z,11.15
2019-05-02T08:04:38.679Z,13.88
2019-05-02T08:07:07.781Z,13.75
2019-05-02T08:09:39.206Z,14.30
2019-05-02T08:12:07.913Z,16.30
2019-05-02T08:14:36.928Z,15.58
2019-05-02T08:17:10.607Z,12.75
2019-05-02T08:19:37.430Z,19.10
2019-05-02T08:22:13.233Z,16.77
2019-05-02T08:24:38.240Z,17.02
2019-05-02T08:27:12.948Z,15.85
2019-05-02T08:29:42.026Z,16.40
2019-05-02T08:32:11.554Z,15.98
2019-05-02T08:34:40.536Z,15.25
2019-05-02T08:37:09.408Z,14.33
2019-05-02T08:39:38.621Z,13.18
2019-05-02T08:42:07.968Z,14.73
2019-05-02T08:44:50.300Z,14.40
2019-05-02T08:47:18.808Z,13.78
2019-05-02T08:49:39.403Z,17.37
2019-05-02T08:52:08.401Z,13.53
2019-05-02T08:54:37.593Z,15.88
2019-05-02T08:57:06.581Z,15.80
2019-05-02T08:59:35.682Z,17.75
2019-05-02T09:02:04.986Z,13.20
2019-05-02T09:04:34.074Z,15.78
2019-05-02T09:07:03.095Z,17.40
2019-05-02T09:09:32.066Z,14.65
2019-05-02T09:12:11.401Z,14.45
2019-05-02T09:14:32.169Z,13.08
2019-05-02T09:17:08.477Z,17.40
2019-05-02T09:19:34.769Z,12.65
2019-05-02T09:22:07.379Z,14.05
2019-05-02T09:24:33.598Z,15.18
2019-05-02T09:27:02.588Z,12.30
2019-05-02T09:29:32.727Z,16.12
2019-05-02T09:32:02.250Z,13.65
2019-05-02T09:34:31.885Z,12.73
2019-05-02T09:37:02.687Z,14.85
2019-05-02T09:39:36.268Z,12.63
2019-05-02T09:42:06.527Z,14.58
2019-05-02T09:44:33.226Z,12.43
2019-05-02T09:47:02.531Z,13.15
2019-05-02T09:49:32.445Z,13.90
2019-05-02T09:52:03.276Z,12.93
2019-05-02T09:54:36.858Z,14.23
2019-05-02T09:57:03.218Z,13.45
2019-05-02T09:59:33.290Z,13.00
2019-05-02T10:02:03.538Z,16.27
2019-05-02T10:04:32.706Z,12.78
2019-05-02T10:07:02.544Z,13.25
2019-05-02T10:09:32.379Z,14.73
2019-05-02T10:12:02.041Z,16.77
2019-05-02T10:14:33.019Z,12.78
2019-05-02T10:17:07.003Z,17.30
2019-05-02T10:19:33.159Z,17.82
2019-05-02T10:22:02.069Z,14.05
2019-05-02T10:24:32.232Z,12.53
2019-05-02T10:27:04.298Z,14.98
2019-05-02T10:29:32.948Z,14.20
2019-05-02T10:32:02.422Z,14.87
2019-05-02T10:34:32.972Z,14.43
2019-05-02T10:37:03.125Z,16.62
2019-05-02T10:39:34.087Z,16.65
2019-05-02T10:42:03.099Z,18.73
2019-05-02T10:44:36.190Z,15.98
2019-05-02T10:47:03.002Z,15.45
2019-05-02T10:49:36.321Z,16.10
2019-05-02T10:52:05.330Z,17.82
2019-05-02T10:54:37.474Z,17.65
2019-05-02T10:57:05.146Z,21.35
2019-05-02T10:59:34.022Z,17.40
2019-05-02T11:02:14.405Z,21.27
2019-05-02T11:04:44.915Z,18.02
2019-05-02T11:07:17.061Z,20.65
2019-05-02T11:09:44.651Z,20.12
2019-05-02T11:12:16.444Z,17.57
2019-05-02T11:14:53.697Z,20.40
2019-05-02T11:17:32.337Z,16.55
2019-05-02T11:20:03.138Z,16.82
2019-05-02T11:22:32.218Z,19.32
2019-05-02T11:25:02.043Z,21.73
2019-05-02T11:27:32.864Z,19.92
2019-05-02T11:30:02.747Z,17.73
2019-05-02T11:32:32.699Z,20.30
2019-05-02T11:35:02.929Z,22.98
2019-05-02T11:37:32.848Z,16.87
2019-05-02T11:40:05.682Z,14.10
2019-05-02T11:42:32.600Z,18.77
2019-05-02T11:45:02.684Z,16.75
2019-05-02T11:47:32.886Z,17.10
2019-05-02T11:50:02.546Z,15.43
2019-05-02T11:52:35.668Z,16.37
2019-05-02T11:55:02.366Z,14.15
2019-05-02T11:57:33.167Z,15.98
2019-05-02T12:00:05.048Z,15.13
2019-05-02T12:02:37.244Z,16.30
2019-05-02T12:05:08.693Z,17.32
2019-05-02T12:07:37.568Z,13.50
2019-05-02T12:10:07.655Z,15.18
2019-05-02T12:12:36.775Z,17.48
2019-05-02T12:15:06.936Z,16.37
2019-05-02T12:17:36.211Z,16.23
2019-05-02T12:20:06.231Z,14.33
2019-05-02T12:22:35.412Z,18.75
2019-05-02T12:25:04.610Z,16.07
2019-05-02T12:27:33.611Z,12.68
2019-05-02T12:30:03.317Z,15.70
2019-05-02T12:32:33.456Z,16.35
2019-05-02T12:35:02.941Z,15.88
2019-05-02T12:37:32.702Z,11.85
2019-05-02T12:40:02.700Z,15.45
2019-05-02T12:42:33.025Z,12.33
2019-05-02T12:45:02.958Z,13.58
2019-05-02T12:47:32.313Z,13.83
2019-05-02T12:50:03.185Z,10.23
2019-05-02T12:52:32.100Z,13.70
2019-05-02T12:55:02.248Z,9.98
2019-05-02T12:57:32.104Z,11.43
2019-05-02T13:00:01.856Z,9.65
2019-05-02T13:02:35.687Z,8.35
2019-05-02T13:05:05.708Z,12.25
2019-05-02T13:07:34.806Z,8.45
2019-05-02T13:10:05.265Z,9.08
2019-05-02T13:12:38.832Z,8.25
2019-05-02T13:15:08.300Z,8.80
2019-05-02T13:17:43.920Z,8.25
2019-05-02T13:20:12.283Z,8.20
2019-05-02T13:22:48.731Z,8.40
2019-05-02T13:25:19.364Z,7.25
2019-05-02T13:27:48.383Z,9.78
2019-05-02T13:30:42.862Z,7.90
2019-05-02T13:33:09.162Z,6.67
2019-05-02T13:35:42.333Z,7.55
2019-05-02T13:38:12.988Z,6.95
2019-05-02T13:40:43.528Z,6.75
2019-05-02T13:43:12.946Z,5.70
2019-05-02T13:45:50.226Z,7.28
2019-05-02T13:48:19.325Z,6.40
2019-05-02T13:50:48.407Z,5.85
2019-05-02T13:53:17.496Z,6.20
2019-05-02T13:55:54.277Z,6.92
2019-05-02T13:58:28.798Z,6.62
2019-05-02T14:00:53.898Z,6.78
2019-05-02T14:03:23.207Z,6.75
2019-05-02T14:05:53.916Z,7.55
2019-05-02T14:08:27.491Z,6.50
2019-05-02T14:11:09.131Z,7.22
2019-05-02T14:13:38.299Z,6.30
2019-05-02T14:16:07.204Z,7.10
2019-05-02T14:18:36.400Z,6.42
2019-05-02T14:21:05.511Z,7.70
2019-05-02T14:23:34.501Z,8.35
2019-05-02T14:26:03.570Z,8.68
2019-05-02T14:28:36.316Z,10.55
2019-05-02T14:31:03.226Z,9.40
2019-05-02T14:33:33.956Z,10.70
2019-05-02T14:36:03.259Z,11.93
2019-05-02T14:38:32.374Z,10.60
2019-05-02T14:41:13.929Z,10.98
2019-05-02T14:43:55.736Z,11.22
2019-05-02T14:46:28.732Z,10.98
2019-05-02T14:48:56.364Z,10.28
2019-05-02T14:51:27.575Z,10.68
2019-05-02T14:53:57.344Z,10.03
2019-05-02T14:56:47.888Z,11.05
2019-05-02T14:59:19.739Z,9.08
2019-05-02T15:01:57.698Z,8.00
2019-05-02T15:04:26.891Z,9.00
2019-05-02T15:06:55.994Z,9.15
2019-05-02T15:09:26.868Z,8.18
2019-05-02T15:11:58.785Z,7.28
2019-05-02T15:14:28.811Z,9.08
2019-05-02T15:16:58.534Z,8.70
2019-05-02T15:19:27.982Z,7.50
2019-05-02T15:21:57.011Z,7.72
2019-05-02T15:24:27.786Z,9.15
2019-05-02T15:26:56.738Z,8.35
2019-05-02T15:29:27.290Z,7.85
2019-05-02T15:32:05.252Z,9.55
2019-05-02T15:34:46.226Z,8.05
2019-05-02T15:37:12.398Z,7.58
2019-05-02T15:42:12.110Z,7.58
2019-05-02T15:44:42.647Z,9.30
2019-05-02T15:47:12.446Z,8.60
2019-05-02T15:49:50.166Z,8.38
2019-05-02T15:52:24.222Z,7.97
2019-05-02T15:54:55.415Z,7.75
2019-05-02T15:57:24.382Z,7.87
2019-05-02T15:59:51.952Z,6.05
2019-05-02T16:02:26.756Z,4.60
2019-05-02T16:04:57.114Z,5.72
2019-05-02T16:07:26.294Z,4.90
2019-05-02T16:09:57.243Z,4.60
2019-05-02T16:12:27.045Z,4.40
2019-05-02T16:14:56.557Z,3.75
2019-05-02T16:17:27.201Z,3.77
2019-05-02T16:20:07.028Z,4.33
2019-05-02T16:22:29.676Z,4.45
2019-05-02T16:24:58.776Z,3.50
2019-05-02T16:27:45.582Z,3.87
2019-05-02T16:30:18.865Z,4.25
2019-05-02T16:32:58.827Z,3.87
2019-05-02T16:35:29.866Z,3.75
2019-05-02T16:37:58.956Z,2.90
2019-05-02T16:40:31.866Z,2.87
2019-05-02T16:42:59.196Z,2.85
2019-05-02T16:45:28.185Z,3.10
2019-05-02T16:47:59.206Z,2.40
2019-05-02T16:50:34.778Z,2.42
2019-05-02T16:52:58.561Z,2.50
2019-05-02T16:55:27.640Z,2.40
2019-05-02T16:58:02.681Z,2.02
2019-05-02T17:00:27.992Z,2.50
2019-05-02T17:02:56.970Z,2.58
2019-05-02T17:05:26.062Z,2.90
2019-05-02T17:08:10.746Z,2.40
2019-05-02T17:10:42.211Z,2.75
2019-05-02T17:13:12.630Z,2.20
2019-05-02T17:15:42.806Z,2.50
2019-05-02T17:18:14.623Z,2.25
2019-05-02T17:20:46.961Z,3.08
2019-05-02T17:23:13.606Z,2.20
2019-05-02T17:25:42.806Z,1.90
2019-05-02T17:28:13.290Z,2.02
2019-05-02T17:30:43.106Z,2.08
2019-05-02T17:33:16.081Z,1.90
2019-05-02T17:35:49.426Z,2.33
2019-05-02T17:38:13.599Z,2.33
2019-05-02T17:40:42.703Z,2.40
2019-05-02T17:43:11.902Z,2.42
2019-05-02T17:45:40.778Z,2.15
2019-05-02T17:48:16.178Z,1.90
2019-05-02T17:50:49.389Z,2.00
2019-05-02T17:53:16.164Z,1.95
2019-05-02T17:55:45.570Z,2.00
2019-05-02T17:58:16.600Z,2.35
2019-05-02T18:00:57.216Z,2.35
2019-05-02T18:03:31.228Z,2.37
2019-05-02T18:05:57.312Z,2.45
2019-05-02T18:08:27.126Z,2.20
2019-05-02T18:11:00.142Z,2.40
2019-05-02T18:13:29.234Z,2.33
2019-05-02T18:15:57.616Z,2.52
2019-05-02T18:18:26.676Z,2.40
2019-05-02T18:20:55.766Z,2.60
2019-05-02T18:23:27.578Z,2.50
2019-05-02T18:25:57.448Z,2.90
2019-05-02T18:28:26.579Z,2.67
2019-05-02T18:30:57.332Z,3.40
2019-05-02T18:33:26.566Z,3.02
2019-05-02T18:35:55.462Z,2.87
2019-05-02T18:38:24.661Z,2.95
2019-05-02T18:40:55.329Z,3.52
2019-05-02T18:43:24.182Z,3.37
2019-05-02T18:45:53.470Z,2.60
2019-05-02T18:48:22.611Z,2.42
2019-05-02T18:50:52.650Z,3.22
2019-05-02T18:53:24.294Z,2.75
2019-05-02T18:55:56.657Z,2.80
2019-05-02T18:58:23.372Z,2.65
2019-05-02T19:00:52.474Z,2.80
2019-05-02T19:03:22.976Z,2.22
2019-05-02T19:05:57.357Z,2.77
2019-05-02T19:08:31.279Z,2.75
2019-05-02T19:11:04.717Z,2.30
2019-05-02T19:13:24.898Z,2.40
2019-05-02T19:15:54.218Z,2.20
2019-05-02T19:18:23.296Z,2.20
2019-05-02T19:20:57.714Z,2.50
2019-05-02T19:23:27.316Z,2.40
2019-05-02T19:25:56.298Z,2.35
2019-05-02T19:28:34.736Z,2.30
2019-05-02T19:31:06.897Z,2.00
2019-05-02T19:33:37.534Z,2.30
2019-05-02T19:36:05.198Z,2.37
2019-05-02T19:38:34.855Z,1.87
2019-05-02T19:41:08.858Z,2.47
2019-05-02T19:43:35.059Z,2.55
2019-05-02T19:46:04.751Z,2.80
2019-05-02T19:48:36.841Z,2.98
2019-05-02T19:51:05.542Z,2.80
2019-05-02T19:53:34.487Z,3.40
2019-05-02T19:56:06.752Z,3.35
2019-05-02T19:58:36.692Z,3.20
2019-05-02T20:01:09.166Z,2.40
2019-05-02T20:03:38.123Z,2.80
2019-05-02T20:06:08.254Z,2.60
2019-05-02T20:08:37.243Z,2.40
2019-05-02T20:11:06.241Z,3.17
2019-05-02T20:13:35.569Z,3.12
2019-05-02T20:16:09.157Z,2.75
2019-05-02T20:18:47.361Z,2.85
2019-05-02T20:21:34.268Z,3.10
2019-05-02T20:24:04.285Z,2.83
2019-05-02T20:26:33.788Z,2.75
2019-05-02T20:29:02.676Z,2.42
2019-05-02T20:31:32.150Z,2.40
2019-05-02T20:34:02.536Z,2.50
2019-05-02T20:36:32.191Z,2.52
2019-05-02T20:39:02.518Z,2.17
2019-05-02T20:41:31.536Z,2.75
2019-05-02T20:44:02.523Z,2.70
2019-05-02T20:46:32.806Z,2.80
2019-05-02T20:49:02.117Z,2.60
2019-05-02T20:51:31.916Z,2.95
2019-05-02T20:54:02.256Z,3.25
2019-05-02T20:56:32.140Z,3.00
2019-05-02T20:59:02.046Z,3.27
2019-05-02T21:01:32.200Z,2.33
2019-05-02T21:04:02.721Z,1.80
2019-05-02T21:06:44.110Z,2.25
2019-05-02T21:09:21.908Z,1.95
2019-05-02T21:11:52.735Z,1.90
2019-05-02T21:14:21.835Z,1.87
2019-05-02T21:16:50.935Z,2.05
2019-05-02T21:19:21.757Z,2.40
2019-05-02T21:21:52.636Z,2.90
2019-05-02T21:24:22.099Z,2.35
2019-05-02T21:26:52.518Z,2.35
2019-05-02T21:29:22.890Z,2.20
2019-05-02T21:31:52.244Z,1.75
2019-05-02T21:34:22.355Z,2.00
2019-05-02T21:36:51.865Z,2.08
2019-05-02T21:39:22.549Z,2.08
2019-05-02T21:41:51.829Z,2.60
2019-05-02T21:44:22.301Z,2.10
2019-05-02T21:46:51.857Z,2.05
2019-05-02T21:49:39.160Z,2.08
2019-05-02T21:52:18.612Z,2.12
2019-05-02T21:54:55.389Z,2.17
2019-05-02T21:57:24.498Z,2.00
2019-05-02T21:59:54.700Z,2.20
2019-05-02T22:02:24.101Z,1.95
2019-05-02T22:04:53.200Z,2.37
2019-05-02T22:07:22.291Z,2.20
2019-05-02T22:09:52.390Z,2.30
2019-05-02T22:12:22.539Z,2.17
2019-05-02T22:14:52.779Z,2.33
2019-05-02T22:17:22.156Z,2.20
2019-05-02T22:19:52.469Z,1.98
2019-05-02T22:22:22.839Z,2.20
2019-05-02T22:24:54.702Z,2.10
2019-05-02T22:27:23.755Z,1.90
2019-05-02T22:29:54.666Z,2.50
2019-05-02T22:32:23.275Z,1.92
2019-05-02T22:34:53.515Z,2.00
2019-05-02T22:37:24.446Z,1.90
2019-05-02T22:39:58.142Z,2.05
2019-05-02T22:42:27.025Z,2.20
2019-05-02T22:44:56.020Z,2.42
2019-05-02T22:47:25.226Z,2.50
2019-05-02T22:49:54.221Z,2.20
2019-05-02T22:52:23.313Z,2.17
2019-05-02T22:54:52.513Z,2.08
2019-05-02T22:57:22.589Z,2.30
2019-05-02T22:59:51.920Z,2.08
2019-05-02T23:02:22.076Z,2.00
2019-05-02T23:04:52.638Z,1.82
2019-05-02T23:07:22.303Z,2.20
2019-05-02T23:09:55.889Z,2.67
2019-05-02T23:12:25.148Z,2.10
2019-05-02T23:14:54.282Z,2.25
2019-05-02T23:17:23.487Z,2.27
2019-05-02T23:19:52.773Z,2.27
2019-05-02T23:22:21.956Z,2.40
2019-05-02T23:24:55.374Z,2.20
2019-05-02T23:27:26.016Z,2.33
2019-05-02T23:29:54.997Z,2.05
2019-05-02T23:32:24.198Z,2.37
2019-05-02T23:34:53.298Z,2.27
2019-05-02T23:37:22.387Z,2.20
2019-05-02T23:39:52.257Z,2.20
2019-05-02T23:42:21.873Z,2.30
2019-05-02T23:44:51.869Z,2.30
2019-05-02T23:47:22.478Z,2.20
2019-05-02T23:49:52.048Z,2.37
2019-05-02T23:52:22.508Z,2.10
2019-05-02T23:54:52.570Z,2.45
2019-05-02T23:57:22.935Z,2.40
2019-05-02T23:59:52.232Z,2.22
